Time;durP1;ratioP1;P1;durP2;ratioP2;P2;SDS_P1;SDS_P2;PMS_P1;PMS_P2;Temp;Humidity;BMP_temperature;BMP_pressure;BME280_temperature;BME280_humidity;BME280_pressure;Samples;Min_cycle;Max_cycle;Signal;HPM_P1;HPM_P2
2022/03/28 00:01:16;;;;;;;22.10;4.53;;;;;;;9.99;66.99;102896.19;4937246;28;20103;-53
2022/03/28 00:03:42;;;;;;;22.40;4.43;;;;;;;10.01;67.52;102900.63;4932510;28;20050;-54
2022/03/28 00:06:07;;;;;;;22.48;4.25;;;;;;;10.04;67.45;102895.59;4934443;28;20138;-54
2022/03/28 00:08:33;;;;;;;22.17;4.00;;;;;;;10.04;66.50;102889.47;4930064;28;20427;-56
2022/03/28 00:10:59;;;;;;;16.08;4.03;;;;;;;9.97;66.63;102883.09;4939182;28;20047;-56
2022/03/28 00:13:24;;;;;;;20.25;4.50;;;;;;;9.96;67.15;102878.69;4940723;28;20130;-52
2022/03/28 00:15:49;;;;;;;18.70;3.95;;;;;;;9.97;67.11;102885.69;4939028;28;20505;-55
2022/03/28 00:18:15;;;;;;;22.23;4.60;;;;;;;9.96;67.76;102888.22;4934363;28;20484;-54
2022/03/28 00:20:40;;;;;;;19.15;4.22;;;;;;;9.95;67.24;102887.31;4934124;28;20342;-55
2022/03/28 00:23:06;;;;;;;18.25;3.95;;;;;;;9.99;67.63;102885.78;4931420;28;20055;-52
2022/03/28 00:25:32;;;;;;;22.20;4.40;;;;;;;10.00;67.58;102887.56;4937259;28;20658;-53
2022/03/28 00:27:58;;;;;;;18.75;4.35;;;;;;;10.01;66.89;102884.13;4939080;28;20098;-51
2022/03/28 00:30:24;;;;;;;22.58;4.97;;;;;;;9.98;66.92;102883.97;4933614;28;20043;-55
2022/03/28 00:32:49;;;;;;;16.92;4.13;;;;;;;9.92;67.32;102875.88;4937116;28;20920;-55
2022/03/28 00:35:15;;;;;;;21.55;4.30;;;;;;;9.94;67.38;102874.25;4938037;28;20323;-54
2022/03/28 00:37:41;;;;;;;19.90;4.28;;;;;;;9.90;67.13;102872.28;4936614;28;20046;-51
2022/03/28 00:40:08;;;;;;;15.60;3.60;;;;;;;9.85;66.82;102868.56;4944425;28;20081;-53
2022/03/28 00:42:34;;;;;;;26.42;4.35;;;;;;;9.82;67.06;102865.84;4924911;28;20509;-60
2022/03/28 00:45:00;;;;;;;16.52;4.15;;;;;;;9.80;67.42;102859.66;4941148;28;20133;-49
2022/03/28 00:47:25;;;;;;;24.60;4.20;;;;;;;9.76;67.33;102862.09;4938680;28;20047;-54
2022/03/28 00:49:50;;;;;;;19.98;4.00;;;;;;;9.74;66.75;102862.88;4939033;28;20035;-53
2022/03/28 00:52:16;;;;;;;19.92;3.95;;;;;;;9.66;66.89;102857.28;4935093;28;20037;-53
2022/03/28 00:54:42;;;;;;;18.45;3.70;;;;;;;9.61;67.03;102863.06;4933661;28;20445;-50
2022/03/28 00:57:07;;;;;;;18.08;4.03;;;;;;;9.56;66.90;102860.25;4937098;28;20098;-55
2022/03/28 00:59:33;;;;;;;16.88;3.80;;;;;;;9.53;66.92;102852.28;4940742;28;20116;-53
2022/03/28 01:01:59;;;;;;;18.15;3.70;;;;;;;9.48;67.17;102842.47;4941248;28;20042;-53
2022/03/28 01:04:24;;;;;;;19.42;3.88;;;;;;;9.45;66.89;102847.53;4939603;28;20053;-52
2022/03/28 01:06:51;;;;;;;24.10;4.30;;;;;;;9.38;67.78;102838.53;4932600;28;20340;-54
2022/03/28 01:09:18;;;;;;;20.77;4.50;;;;;;;9.41;67.79;102836.06;4938870;28;20627;-54
2022/03/28 01:11:46;;;;;;;21.80;4.50;;;;;;;9.48;68.29;102832.06;4934884;28;20050;-55
2022/03/28 01:14:11;;;;;;;20.67;4.00;;;;;;;9.51;67.41;102830.50;4941474;28;20121;-53
2022/03/28 01:18:05;;;;;;;18.98;4.25;;;;;;;9.45;67.19;102827.59;4930118;28;20361;-54
2022/03/28 01:19:24;;;;;;;17.95;4.00;;;;;;;9.41;67.54;102823.03;4939082;28;20046;-53
2022/03/28 01:21:51;;;;;;;19.02;4.03;;;;;;;9.43;67.72;102824.03;4934916;28;20542;-52
2022/03/28 01:24:16;;;;;;;20.85;4.68;;;;;;;9.42;67.38;102826.53;4939260;28;20249;-50
2022/03/28 01:26:42;;;;;;;21.42;4.32;;;;;;;9.42;67.53;102829.16;4931364;28;20391;-50
2022/03/28 01:29:07;;;;;;;16.08;3.80;;;;;;;9.37;67.30;102818.50;4942399;28;20367;-53
2022/03/28 01:31:37;;;;;;;23.92;4.55;;;;;;;9.32;67.37;102818.28;4943430;28;20054;-53
2022/03/28 01:34:03;;;;;;;24.92;4.90;;;;;;;9.38;67.57;102817.69;4940022;28;20793;-54
2022/03/28 01:36:31;;;;;;;21.73;4.53;;;;;;;9.35;67.67;102821.03;4942062;28;20129;-55
2022/03/28 01:38:56;;;;;;;23.42;4.32;;;;;;;9.32;67.80;102814.78;4936734;28;20049;-55
2022/03/28 01:41:22;;;;;;;17.55;3.92;;;;;;;9.31;67.58;102819.09;4936167;28;20047;-52
2022/03/28 01:43:47;;;;;;;18.98;4.15;;;;;;;9.34;67.32;102802.72;4932988;28;20047;-52
2022/03/28 01:46:12;;;;;;;23.33;5.00;;;;;;;9.28;67.40;102802.44;4945013;28;20070;-49
2022/03/28 01:48:38;;;;;;;20.63;4.50;;;;;;;9.30;67.57;102806.00;4928083;28;20098;-50
2022/03/28 01:51:03;;;;;;;19.30;4.05;;;;;;;9.24;67.03;102798.78;4937676;28;20407;-53
2022/03/28 01:53:28;;;;;;;19.05;4.65;;;;;;;9.17;67.96;102794.09;4938137;28;20066;-52
2022/03/28 01:55:54;;;;;;;23.63;4.40;;;;;;;9.16;67.84;102789.72;4928385;28;20053;-51
2022/03/28 01:58:19;;;;;;;24.05;4.28;;;;;;;9.19;67.30;102792.47;4943319;28;20047;-54
2022/03/28 02:00:45;;;;;;;23.38;4.75;;;;;;;9.14;67.34;102786.16;4926081;28;20050;-55
2022/03/28 02:03:10;;;;;;;25.25;4.82;;;;;;;9.12;67.29;102784.28;4937575;28;20422;-53
2022/03/28 02:05:36;;;;;;;24.65;4.22;;;;;;;9.09;67.29;102791.97;4932324;28;20050;-54
2022/03/28 02:08:02;;;;;;;23.35;4.70;;;;;;;9.05;67.27;102788.28;4938932;28;20528;-53
2022/03/28 02:10:28;;;;;;;19.95;4.28;;;;;;;9.10;67.29;102789.41;4937788;28;20066;-51
2022/03/28 02:12:54;;;;;;;19.33;3.88;;;;;;;9.09;67.70;102781.53;4934593;28;20492;-54
2022/03/28 02:15:21;;;;;;;20.08;4.22;;;;;;;9.02;67.90;102780.34;4936345;28;20055;-50
2022/03/28 02:17:47;;;;;;;18.30;4.22;;;;;;;8.99;67.50;102782.78;4936448;28;20047;-51
2022/03/28 02:20:13;;;;;;;21.20;4.35;;;;;;;8.94;67.77;102777.34;4942112;28;20205;-55
2022/03/28 02:22:41;;;;;;;22.08;4.38;;;;;;;8.95;67.68;102771.34;4930307;28;20031;-52
2022/03/28 02:25:08;;;;;;;21.08;4.47;;;;;;;8.94;67.67;102781.66;4941099;28;20131;-51
2022/03/28 02:27:34;;;;;;;23.17;4.50;;;;;;;8.93;67.81;102772.06;4937028;28;20050;-53
2022/03/28 02:29:59;;;;;;;15.32;3.88;;;;;;;8.90;67.63;102772.78;4934819;28;20047;-51
2022/03/28 02:32:25;;;;;;;20.23;4.60;;;;;;;8.85;67.52;102765.56;4937433;28;20077;-52
2022/03/28 02:34:50;;;;;;;19.48;4.45;;;;;;;8.78;67.73;102764.38;4930980;28;20639;-53
2022/03/28 02:37:15;;;;;;;21.98;4.40;;;;;;;8.77;67.81;102760.00;4940221;28;20347;-54
2022/03/28 02:39:41;;;;;;;19.27;4.15;;;;;;;8.73;68.04;102759.75;4939911;28;20546;-51
2022/03/28 02:42:07;;;;;;;21.77;4.97;;;;;;;8.69;68.35;102750.03;4931557;28;21568;-52
2022/03/28 02:44:32;;;;;;;23.50;4.55;;;;;;;8.73;67.96;102749.34;4937229;28;20093;-58
2022/03/28 02:46:57;;;;;;;22.15;4.10;;;;;;;8.70;67.73;102744.00;4937379;28;20267;-51
2022/03/28 02:49:23;;;;;;;23.98;4.60;;;;;;;8.68;68.37;102743.03;4938848;28;20146;-53
2022/03/28 02:51:48;;;;;;;24.17;5.03;;;;;;;8.63;68.59;102747.13;4931979;28;20047;-50
2022/03/28 02:54:14;;;;;;;20.92;5.15;;;;;;;8.63;68.03;102739.31;4931282;28;20035;-50
2022/03/28 02:56:39;;;;;;;16.65;4.22;;;;;;;8.64;68.01;102733.31;4932813;28;20778;-52
2022/03/28 02:59:05;;;;;;;18.08;4.40;;;;;;;8.57;68.18;102726.91;4938309;28;20063;-52
2022/03/28 03:01:30;;;;;;;23.63;4.40;;;;;;;8.52;68.67;102726.69;4938275;28;20409;-54
2022/03/28 03:03:56;;;;;;;19.77;5.20;;;;;;;8.54;68.37;102726.72;4935472;28;20065;-54
2022/03/28 03:06:21;;;;;;;16.65;4.55;;;;;;;8.51;68.23;102724.00;4939735;28;20050;-51
2022/03/28 03:08:47;;;;;;;19.50;4.95;;;;;;;8.48;68.04;102722.09;4930836;28;20061;-52
2022/03/28 03:11:13;;;;;;;17.95;4.75;;;;;;;8.49;68.68;102721.31;4934357;28;20398;-51
2022/03/28 03:13:38;;;;;;;28.15;5.63;;;;;;;8.42;68.80;102718.31;4941146;28;20065;-53
2022/03/28 03:16:04;;;;;;;20.48;4.82;;;;;;;8.41;68.69;102714.84;4937543;28;20589;-54
2022/03/28 03:18:30;;;;;;;21.73;5.32;;;;;;;8.42;69.11;102715.69;4935056;28;20605;-53
2022/03/28 03:20:56;;;;;;;22.83;5.05;;;;;;;8.44;69.06;102714.97;4928548;28;20050;-54
2022/03/28 03:23:21;;;;;;;21.13;5.40;;;;;;;8.47;69.03;102716.84;4924445;28;20426;-54
2022/03/28 03:25:47;;;;;;;20.42;5.20;;;;;;;8.46;68.65;102709.88;4938697;28;20053;-53
2022/03/28 03:28:12;;;;;;;21.23;5.05;;;;;;;8.46;68.77;102713.38;4939052;28;20086;-53
2022/03/28 03:30:38;;;;;;;24.13;5.60;;;;;;;8.48;68.54;102711.72;4929552;28;20050;-53
2022/03/28 03:33:03;;;;;;;22.90;5.20;;;;;;;8.51;68.15;102700.59;4923771;28;20054;-51
2022/03/28 03:35:29;;;;;;;21.70;5.40;;;;;;;8.49;68.86;102702.22;4937017;28;20581;-52
2022/03/28 03:37:54;;;;;;;26.08;5.40;;;;;;;8.48;68.43;102696.13;4939525;28;20045;-53
2022/03/28 03:40:23;;;;;;;26.55;6.00;;;;;;;8.44;68.33;102690.69;4948240;28;20352;-54
2022/03/28 03:42:48;;;;;;;22.20;5.72;;;;;;;8.44;68.51;102688.09;4946401;28;20058;-54
2022/03/28 03:45:14;;;;;;;19.45;5.30;;;;;;;8.47;68.84;102691.75;4927649;28;20031;-53
2022/03/28 03:47:40;;;;;;;18.80;6.00;;;;;;;8.42;68.67;102693.22;4934301;28;20442;-54
2022/03/28 03:50:06;;;;;;;16.88;5.35;;;;;;;8.38;68.53;102688.69;4929681;28;20054;-54
2022/03/28 03:52:31;;;;;;;25.02;5.68;;;;;;;8.43;68.09;102683.72;4931878;28;20070;-55
2022/03/28 03:54:57;;;;;;;23.42;6.30;;;;;;;8.37;68.47;102671.28;4930846;28;20439;-51
2022/03/28 03:57:22;;;;;;;23.48;5.82;;;;;;;8.36;68.83;102687.69;4937597;28;20047;-54
2022/03/28 03:59:48;;;;;;;18.90;5.85;;;;;;;8.39;68.29;102680.06;4927696;28;20614;-53
2022/03/28 04:02:13;;;;;;;24.30;6.50;;;;;;;8.34;68.68;102671.16;4928875;28;20391;-51
2022/03/28 04:04:39;;;;;;;20.73;6.22;;;;;;;8.32;68.65;102682.28;4928530;28;20043;-53
2022/03/28 04:07:04;;;;;;;20.55;6.35;;;;;;;8.29;68.87;102676.91;4936252;28;20055;-53
2022/03/28 04:09:30;;;;;;;20.65;6.22;;;;;;;8.32;68.57;102677.97;4935118;28;20120;-52
2022/03/28 04:11:55;;;;;;;24.35;6.70;;;;;;;8.33;68.62;102671.97;4936239;28;20047;-54
2022/03/28 04:14:20;;;;;;;22.25;6.05;;;;;;;8.28;68.97;102672.50;4933524;28;20034;-51
2022/03/28 04:16:46;;;;;;;20.88;6.30;;;;;;;8.28;68.75;102673.41;4932418;28;20128;-50
2022/03/28 04:19:13;;;;;;;17.70;5.80;;;;;;;8.27;68.39;102676.81;4927544;28;20043;-53
2022/03/28 04:21:38;;;;;;;18.60;6.22;;;;;;;8.23;68.38;102674.88;4934610;28;20408;-55
2022/03/28 04:24:04;;;;;;;20.63;6.28;;;;;;;8.21;68.58;102681.69;4931216;28;20293;-52
2022/03/28 04:26:29;;;;;;;21.23;6.60;;;;;;;8.17;68.73;102692.75;4937803;28;20343;-54
2022/03/28 04:28:55;;;;;;;21.40;6.43;;;;;;;8.14;68.64;102687.38;4933451;28;20042;-52
2022/03/28 04:31:20;;;;;;;20.05;6.85;;;;;;;8.11;69.33;102682.03;4938861;28;20990;-50
2022/03/28 04:33:45;;;;;;;22.80;6.95;;;;;;;8.15;69.00;102674.47;4939817;28;20634;-50
2022/03/28 04:36:11;;;;;;;23.15;7.22;;;;;;;8.13;69.52;102686.50;4931455;28;20059;-54
2022/03/28 04:38:37;;;;;;;22.38;6.78;;;;;;;8.12;69.26;102678.59;4931729;28;20043;-51
2022/03/28 04:41:02;;;;;;;20.15;7.40;;;;;;;8.14;69.07;102683.09;4936808;28;20473;-53
2022/03/28 04:43:28;;;;;;;22.20;6.85;;;;;;;8.11;68.97;102677.72;4935963;28;20045;-53
2022/03/28 04:45:53;;;;;;;21.65;6.65;;;;;;;8.05;68.63;102677.38;4931626;28;20042;-53
2022/03/28 04:48:19;;;;;;;18.13;7.20;;;;;;;7.96;69.28;102676.03;4939636;28;20054;-51
2022/03/28 04:50:44;;;;;;;28.80;7.85;;;;;;;7.96;70.11;102665.66;4925941;28;20303;-56
2022/03/28 04:53:09;;;;;;;28.52;8.75;;;;;;;7.99;69.97;102674.47;4938016;28;20053;-52
2022/03/28 04:55:35;;;;;;;23.73;7.72;;;;;;;7.99;69.57;102666.69;4932376;28;20640;-53
2022/03/28 04:58:00;;;;;;;22.60;7.90;;;;;;;7.95;69.70;102662.16;4935235;28;20047;-54
2022/03/28 05:00:27;;;;;;;20.92;8.52;;;;;;;7.90;69.78;102661.03;4933556;28;20483;-55
2022/03/28 05:02:54;;;;;;;20.55;8.40;;;;;;;7.91;70.26;102648.94;4932228;28;21647;-53
2022/03/28 05:05:19;;;;;;;25.60;9.10;;;;;;;7.93;70.29;102644.72;4934988;28;20414;-54
2022/03/28 05:07:44;;;;;;;22.90;9.50;;;;;;;7.93;70.58;102636.94;4930014;28;20519;-54
2022/03/28 05:10:10;;;;;;;22.85;9.75;;;;;;;7.97;70.52;102636.28;4940899;28;20493;-54
2022/03/28 05:12:35;;;;;;;31.48;10.73;;;;;;;8.08;70.82;102633.41;4930584;28;20058;-52
2022/03/28 05:15:02;;;;;;;26.35;10.13;;;;;;;8.19;70.51;102635.66;4939118;28;20050;-54
2022/03/28 05:17:30;;;;;;;31.15;11.32;;;;;;;8.12;70.96;102629.25;4916807;28;20039;-51
2022/03/28 05:19:57;;;;;;;31.95;11.43;;;;;;;8.14;71.38;102640.63;4933344;28;20059;-54
2022/03/28 05:22:23;;;;;;;29.00;11.52;;;;;;;8.19;71.92;102641.75;4941537;28;20046;-55
2022/03/28 05:24:50;;;;;;;25.85;11.50;;;;;;;8.35;71.52;102633.06;4924240;28;20660;-51
2022/03/28 05:27:16;;;;;;;29.50;11.38;;;;;;;8.32;71.32;102643.28;4942732;28;20221;-52
2022/03/28 05:29:42;;;;;;;36.35;12.35;;;;;;;8.28;71.54;102638.72;4939867;28;20042;-52
2022/03/28 05:32:08;;;;;;;31.25;12.93;;;;;;;8.28;71.62;102639.63;4939770;28;20081;-54
2022/03/28 05:34:34;;;;;;;27.95;12.52;;;;;;;8.29;71.63;102635.31;4927317;28;20065;-58
2022/03/28 05:37:01;;;;;;;35.33;13.20;;;;;;;8.36;71.59;102642.63;4941082;28;20499;-54
2022/03/28 05:39:27;;;;;;;32.35;12.90;;;;;;;8.40;71.76;102632.47;4941732;28;20053;-54
2022/03/28 05:41:53;;;;;;;32.03;13.02;;;;;;;8.42;71.67;102633.44;4931837;28;20045;-53
2022/03/28 05:44:20;;;;;;;42.50;13.30;;;;;;;8.53;71.36;102634.88;4936077;28;20051;-54
2022/03/28 05:46:48;;;;;;;31.00;12.93;;;;;;;8.47;71.55;102629.38;4929304;28;20351;-54
2022/03/28 05:49:14;;;;;;;39.70;12.55;;;;;;;8.51;71.41;102636.50;4933446;28;20538;-53
2022/03/28 05:51:39;;;;;;;30.77;12.82;;;;;;;8.54;71.35;102631.44;4941252;28;20126;-53
2022/03/28 05:54:04;;;;;;;32.85;12.90;;;;;;;8.54;71.42;102631.44;4939617;28;20050;-50
2022/03/28 05:56:30;;;;;;;69.20;12.43;;;;;;;8.53;70.83;102624.47;4932505;28;20039;-52
2022/03/28 05:58:55;;;;;;;31.40;12.43;;;;;;;8.49;71.11;102619.94;4937264;28;20062;-53
2022/03/28 06:01:21;;;;;;;35.60;12.93;;;;;;;8.53;71.07;102624.47;4936321;28;20314;-52
2022/03/28 06:03:47;;;;;;;136.15;12.75;;;;;;;8.32;71.15;102623.41;4940277;28;20046;-53
2022/03/28 06:06:12;;;;;;;142.10;12.70;;;;;;;8.44;71.01;102617.91;4939373;28;20054;-52
2022/03/28 06:08:38;;;;;;;37.53;12.35;;;;;;;8.53;70.93;102621.88;4928041;28;20960;-52
2022/03/28 06:11:03;;;;;;;88.22;12.20;;;;;;;8.51;71.34;102622.59;4934858;28;20043;-54
2022/03/28 06:13:30;;;;;;;34.33;11.63;;;;;;;8.51;71.30;102628.72;4923425;28;20505;-53
2022/03/28 06:15:55;;;;;;;64.22;12.52;;;;;;;8.55;71.46;102632.34;4940498;28;20049;-51
2022/03/28 06:18:20;;;;;;;38.90;12.48;;;;;;;8.63;71.31;102627.53;4929615;28;20074;-56
2022/03/28 06:20:46;;;;;;;55.58;11.63;;;;;;;8.61;71.31;102626.53;4928462;28;20093;-53
2022/03/28 06:23:12;;;;;;;74.68;12.10;;;;;;;8.60;71.12;102627.38;4937113;28;20078;-56
2022/03/28 06:25:37;;;;;;;35.45;11.80;;;;;;;8.79;71.25;102623.13;4939815;28;20047;-54
2022/03/28 06:28:03;;;;;;;65.50;12.43;;;;;;;8.76;70.60;102616.91;4936705;28;20487;-50
2022/03/28 06:30:29;;;;;;;112.65;12.45;;;;;;;8.81;70.58;102629.31;4934757;28;20413;-55
2022/03/28 06:32:54;;;;;;;118.40;13.43;;;;;;;8.75;70.24;102620.31;4929923;28;20141;-55
2022/03/28 06:35:20;;;;;;;54.05;12.77;;;;;;;8.95;70.28;102616.97;4939797;28;20884;-54
2022/03/28 06:37:50;;;;;;;34.47;12.98;;;;;;;8.96;70.37;102622.22;4937208;28;20046;-53
2022/03/28 06:40:16;;;;;;;125.30;13.65;;;;;;;8.84;70.25;102623.38;4935539;28;20494;-52
2022/03/28 06:42:42;;;;;;;31.58;13.50;;;;;;;9.11;70.31;102623.78;4930631;28;20138;-55
2022/03/28 06:45:10;;;;;;;74.07;13.05;;;;;;;9.06;70.24;102627.88;4936510;28;20835;-54
2022/03/28 06:47:35;;;;;;;49.70;13.27;;;;;;;9.07;69.97;102619.25;4929211;28;20109;-53
2022/03/28 06:50:01;;;;;;;30.95;14.25;;;;;;;9.29;69.76;102614.22;4929900;28;20316;-54
2022/03/28 06:52:27;;;;;;;35.72;14.35;;;;;;;9.63;70.14;102621.88;4935609;28;20050;-53
2022/03/28 06:54:53;;;;;;;32.35;13.45;;;;;;;9.72;69.23;102615.34;4933119;28;20958;-56
2022/03/28 06:57:18;;;;;;;33.70;14.27;;;;;;;9.49;68.86;102615.16;4935050;28;20387;-53
2022/03/28 06:59:44;;;;;;;32.38;13.25;;;;;;;9.61;67.68;102606.19;4933845;28;20058;-54
2022/03/28 07:02:09;;;;;;;30.98;14.02;;;;;;;9.66;67.41;102596.84;4936832;28;20081;-55
2022/03/28 07:04:34;;;;;;;35.38;13.70;;;;;;;9.73;67.40;102605.81;4932624;28;20406;-55
2022/03/28 07:07:00;;;;;;;29.83;12.93;;;;;;;9.76;67.24;102601.63;4935406;28;20047;-54
2022/03/28 07:09:26;;;;;;;24.65;12.02;;;;;;;9.88;67.34;102601.28;4937869;28;20039;-55
2022/03/28 07:11:51;;;;;;;25.88;12.57;;;;;;;9.97;66.49;102598.19;4934912;28;20042;-55
2022/03/28 07:14:17;;;;;;;31.85;13.43;;;;;;;10.05;66.38;102599.41;4927132;28;20051;-56
2022/03/28 07:16:43;;;;;;;25.92;11.85;;;;;;;10.03;66.81;102603.66;4929966;28;20079;-56
2022/03/28 07:19:08;;;;;;;26.85;13.07;;;;;;;10.14;66.50;102597.19;4936492;28;20506;-55
2022/03/28 07:21:34;;;;;;;24.38;12.52;;;;;;;10.20;66.12;102592.28;4935637;28;20084;-53
2022/03/28 07:24:00;;;;;;;25.67;12.48;;;;;;;10.11;65.38;102592.75;4933987;28;20140;-57
2022/03/28 07:26:27;;;;;;;25.13;12.68;;;;;;;10.21;65.51;102591.44;4936992;28;20065;-54
2022/03/28 07:28:52;;;;;;;23.92;12.10;;;;;;;10.24;65.36;102595.91;4933185;28;21280;-51
2022/03/28 07:31:18;;;;;;;25.48;11.75;;;;;;;10.21;66.07;102588.84;4939112;28;20042;-53
2022/03/28 07:33:44;;;;;;;22.80;12.75;;;;;;;10.38;65.65;102589.53;4934711;28;20589;-54
2022/03/28 07:36:10;;;;;;;25.50;13.02;;;;;;;10.54;66.08;102591.97;4942905;28;20145;-53
2022/03/28 07:38:36;;;;;;;23.35;12.13;;;;;;;10.79;64.67;102597.34;4927486;28;20070;-54
2022/03/28 07:41:03;;;;;;;22.80;12.57;;;;;;;10.76;63.93;102598.94;4935261;28;20051;-53
2022/03/28 07:43:29;;;;;;;29.02;12.63;;;;;;;10.80;63.96;102590.38;4940900;28;20056;-55
2022/03/28 07:45:55;;;;;;;28.48;12.82;;;;;;;11.14;63.71;102585.66;4931976;28;20086;-53
2022/03/28 07:48:22;;;;;;;25.27;12.73;;;;;;;11.42;63.27;102590.19;4934504;28;20710;-52
2022/03/28 07:50:49;;;;;;;22.10;12.20;;;;;;;11.88;62.05;102579.72;4929906;28;20249;-53
2022/03/28 07:53:16;;;;;;;21.20;12.00;;;;;;;11.74;61.92;102579.22;4937214;28;20129;-50
2022/03/28 07:55:45;;;;;;;19.95;11.82;;;;;;;12.29;59.13;102577.63;4939378;28;20403;-55
2022/03/28 07:58:11;;;;;;;19.83;12.13;;;;;;;11.91;60.40;102581.53;4937996;28;20062;-56
2022/03/28 08:00:37;;;;;;;22.63;12.13;;;;;;;11.66;61.16;102585.84;4928450;28;20047;-55
2022/03/28 08:03:04;;;;;;;20.60;11.98;;;;;;;12.01;61.01;102586.28;4929965;28;20080;-55
2022/03/28 08:05:29;;;;;;;21.40;11.90;;;;;;;11.91;60.94;102587.66;4939402;28;20217;-54
2022/03/28 08:07:55;;;;;;;20.67;11.70;;;;;;;11.99;60.10;102586.22;4932555;28;20275;-55
2022/03/28 08:10:21;;;;;;;19.95;11.27;;;;;;;11.89;60.54;102578.00;4937356;28;20834;-56
2022/03/28 08:12:48;;;;;;;21.27;11.38;;;;;;;12.01;59.96;102581.03;4927975;28;20046;-53
2022/03/28 08:15:15;;;;;;;20.92;11.75;;;;;;;11.73;60.31;102589.59;4939095;28;20053;-53
2022/03/28 08:17:41;;;;;;;23.35;11.25;;;;;;;11.20;60.40;102588.50;4935356;28;20043;-55
2022/03/28 08:20:09;;;;;;;21.02;11.68;;;;;;;11.44;61.44;102578.09;4937395;28;20042;-58
2022/03/28 08:22:39;;;;;;;19.75;11.27;;;;;;;11.76;60.71;102580.19;4929211;28;20153;-55
2022/03/28 08:25:07;;;;;;;18.92;10.45;;;;;;;11.61;60.91;102576.97;4940693;28;20039;-56
2022/03/28 08:27:33;;;;;;;20.42;11.23;;;;;;;11.91;58.53;102573.69;4933274;28;20046;-56
2022/03/28 08:29:59;;;;;;;19.40;11.52;;;;;;;11.88;59.67;102574.50;4930103;28;20042;-56
2022/03/28 08:32:24;;;;;;;19.10;11.25;;;;;;;12.24;59.36;102576.59;4913521;28;20097;-55
2022/03/28 08:34:50;;;;;;;21.67;11.65;;;;;;;12.13;59.37;102571.91;4930048;28;20233;-53
2022/03/28 08:37:16;;;;;;;22.15;12.15;;;;;;;11.94;58.74;102564.25;4937889;28;21186;-56
2022/03/28 08:39:43;;;;;;;17.00;10.82;;;;;;;12.38;59.59;102580.56;4936159;28;20226;-55
2022/03/28 08:42:18;;;;;;;23.85;11.88;;;;;;;12.60;57.47;102567.34;4936441;28;20039;-57
2022/03/28 08:44:43;;;;;;;21.05;11.65;;;;;;;12.72;57.11;102561.59;4924286;28;20055;-55
2022/03/28 08:47:09;;;;;;;19.63;11.32;;;;;;;12.82;57.07;102556.69;4940806;28;20517;-56
2022/03/28 08:49:37;;;;;;;20.00;12.07;;;;;;;12.47;58.03;102555.59;4927040;28;20043;-56
2022/03/28 08:52:05;;;;;;;20.70;11.93;;;;;;;12.52;57.33;102555.72;4932747;28;21113;-56
2022/03/28 08:54:30;;;;;;;23.63;12.00;;;;;;;12.81;57.87;102551.41;4935449;28;20058;-56
2022/03/28 08:56:56;;;;;;;25.05;12.27;;;;;;;12.69;57.82;102548.41;4938506;28;20489;-54
2022/03/28 08:59:21;;;;;;;23.67;11.73;;;;;;;12.40;57.79;102551.00;4935469;28;20051;-56
2022/03/28 09:01:48;;;;;;;21.80;11.98;;;;;;;12.75;58.18;102549.47;4936284;28;20051;-55
2022/03/28 09:04:15;;;;;;;19.23;11.35;;;;;;;13.18;56.62;102533.38;4938288;28;20047;-54
2022/03/28 09:06:43;;;;;;;22.73;12.45;;;;;;;12.74;57.81;102544.22;4922874;28;20299;-55
2022/03/28 09:09:08;;;;;;;24.00;12.63;;;;;;;12.87;58.44;102543.72;4941762;28;20090;-59
2022/03/28 09:11:34;;;;;;;22.75;12.20;;;;;;;13.24;56.91;102546.63;4934932;28;20068;-54
2022/03/28 09:13:59;;;;;;;21.50;12.20;;;;;;;13.19;56.81;102548.25;4953206;28;20047;-57
2022/03/28 09:16:29;;;;;;;23.10;12.48;;;;;;;13.50;56.65;102542.16;4937497;28;20441;-54
2022/03/28 09:18:55;;;;;;;23.13;11.93;;;;;;;13.71;56.83;102541.88;4932328;28;21028;-55
2022/03/28 09:21:24;;;;;;;22.48;12.27;;;;;;;13.69;55.22;102540.94;4935605;28;20148;-52
2022/03/28 09:23:51;;;;;;;23.13;12.40;;;;;;;13.54;55.33;102543.13;4940844;28;20633;-56
2022/03/28 09:26:25;;;;;;;22.65;12.30;;;;;;;13.53;56.32;102546.59;4931652;28;20081;-55
2022/03/28 09:28:50;;;;;;;;;;;;;;;13.02;56.98;102537.25;4933857;28;20038;-54
2022/03/28 09:31:31;;;;;;;25.95;12.43;;;;;;;13.05;58.17;102533.84;4939661;28;19926;-55
2022/03/28 09:33:58;;;;;;;21.85;12.90;;;;;;;13.13;58.66;102539.31;4938792;28;20133;-55
2022/03/28 09:36:42;;;;;;;22.23;12.63;;;;;;;13.64;57.68;102532.06;4940162;28;20105;-57
2022/03/28 09:39:10;;;;;;;23.13;12.73;;;;;;;13.88;56.40;102526.56;4938861;28;20081;-55
2022/03/28 09:41:36;;;;;;;23.63;13.20;;;;;;;13.87;56.15;102533.56;4937885;28;20538;-55
2022/03/28 09:44:02;;;;;;;25.60;13.10;;;;;;;13.84;55.13;102524.72;4933794;28;20098;-56
2022/03/28 09:46:34;;;;;;;25.02;13.30;;;;;;;13.97;55.48;102517.19;4940141;28;20631;-58
2022/03/28 09:49:00;;;;;;;25.25;13.18;;;;;;;14.12;54.65;102509.72;4936754;28;20605;-57
2022/03/28 09:51:30;;;;;;;27.50;12.85;;;;;;;14.32;53.54;102514.59;4939052;28;20049;-55
2022/03/28 09:53:58;;;;;;;23.63;12.65;;;;;;;14.54;53.26;102509.00;4941988;28;20034;-54
2022/03/28 09:56:24;;;;;;;27.60;13.73;;;;;;;14.49;52.66;102503.66;4936756;28;20064;-56
2022/03/28 09:58:57;;;;;;;26.00;13.68;;;;;;;14.77;53.22;102509.53;4933980;28;20370;-55
2022/03/28 10:01:31;;;;;;;26.88;12.98;;;;;;;14.83;52.04;102497.41;4932444;28;20043;-59
2022/03/28 10:04:08;;;;;;;27.08;13.60;;;;;;;14.62;53.09;102504.84;4938189;28;20035;-53
2022/03/28 10:06:37;;;;;;;25.70;13.30;;;;;;;14.89;52.60;102494.94;4932575;28;20240;-53
2022/03/28 10:09:04;;;;;;;26.02;13.02;;;;;;;15.03;52.33;102488.22;4934571;28;20152;-54
2022/03/28 10:11:29;;;;;;;23.80;13.32;;;;;;;15.16;51.91;102494.63;4936838;28;20369;-57
2022/03/28 10:13:56;;;;;;;22.13;13.10;;;;;;;15.23;52.34;102490.38;4939948;28;20442;-57
2022/03/28 10:16:22;;;;;;;25.42;13.63;;;;;;;15.44;51.79;102489.03;4936684;28;20085;-56
2022/03/28 10:18:50;;;;;;;24.73;14.13;;;;;;;15.09;53.28;102484.84;4931609;28;20525;-56
2022/03/28 10:21:27;;;;;;;27.58;15.32;;;;;;;14.80;54.23;102486.88;4935531;28;20811;-56
2022/03/28 10:24:01;;;;;;;24.88;14.25;;;;;;;15.16;54.13;102473.59;4935351;28;20050;-52
2022/03/28 10:26:34;;;;;;;28.85;14.70;;;;;;;15.19;53.75;102468.41;4932226;28;20095;-58
2022/03/28 10:29:13;;;;;;;26.13;14.00;;;;;;;14.97;53.50;102474.09;4932030;28;20114;-56
2022/03/28 10:31:59;;;;;;;28.00;15.07;;;;;;;15.20;53.19;102464.03;4937145;28;20849;-55
2022/03/28 10:35:01;;;;;;;24.45;13.38;;;;;;;15.46;52.17;102468.06;4926832;28;20145;-54
2022/03/28 10:37:32;;;;;;;26.83;14.23;;;;;;;15.30;53.30;102461.63;4939534;28;20055;-55
2022/03/28 10:40:34;;;;;;;28.00;14.27;;;;;;;15.36;52.90;102456.50;4937308;28;20050;-56
2022/03/28 10:43:11;;;;;;;27.77;14.05;;;;;;;15.62;52.71;102456.97;4932118;28;20062;-55
2022/03/28 10:45:50;;;;;;;24.48;13.85;;;;;;;15.70;52.77;102457.13;4941176;28;20609;-55
2022/03/28 10:48:17;;;;;;;28.48;14.25;;;;;;;15.90;52.73;102455.72;4933735;28;20050;-56
2022/03/28 10:50:51;;;;;;;24.65;13.90;;;;;;;16.06;51.76;102460.38;4934034;28;20057;-56
2022/03/28 10:53:39;;;;;;;28.52;14.55;;;;;;;15.98;51.60;102443.56;4939029;28;20517;-54
2022/03/28 10:56:07;;;;;;;30.02;14.05;;;;;;;15.90;51.66;102449.59;4939061;28;20544;-57
2022/03/28 10:58:38;;;;;;;26.50;14.32;;;;;;;15.95;51.40;102443.53;4930863;28;20055;-56
2022/03/28 11:01:11;;;;;;;26.67;14.65;;;;;;;16.10;51.66;102442.91;4932791;28;20089;-54
2022/03/28 11:03:45;;;;;;;26.17;13.57;;;;;;;16.08;50.91;102439.34;4938099;28;20137;-54
2022/03/28 11:06:12;;;;;;;26.35;13.45;;;;;;;16.16;51.36;102427.22;4935634;28;20126;-53
2022/03/28 11:08:59;;;;;;;28.50;14.30;;;;;;;15.87;52.87;102436.38;4932785;28;20034;-54
2022/03/28 11:11:27;;;;;;;26.50;13.32;;;;;;;15.97;52.87;102438.31;4936725;28;20053;-56
2022/03/28 11:14:08;;;;;;;26.90;13.85;;;;;;;16.15;53.01;102434.22;4935261;28;20043;-54
2022/03/28 11:16:54;;;;;;;25.77;13.50;;;;;;;16.27;52.29;102438.78;4934926;28;20066;-59